sensor_id;sensor_type;location;lat;lon;timestamp;P1;P2;P0
78842;PMS5003;70542;53.774;-0.352;2023-10-19T00:04:01;14;14;
78842;PMS5003;70542;53.774;-0.352;2023-10-19T00:09:46;19;19;
78842;PMS5003;70542;53.774;-0.352;2023-10-19T00:15:31;16;16;
78842;PMS5003;70542;53.774;-0.352;2023-10-19T00:21:20;15;15;
78842;PMS5003;70542;53.774;-0.352;2023-10-19T00:27:14;8;8;
78842;PMS5003;70542;53.774;-0.352;2023-10-19T00:32:54;11;11;
78842;PMS5003;70542;53.774;-0.352;2023-10-19T00:38:35;20;7;
78842;PMS5003;70542;53.774;-0.352;2023-10-19T00:44:20;10;10;
78842;PMS5003;70542;53.774;-0.352;2023-10-19T00:49:59;7;7;
78842;PMS5003;70542;53.774;-0.352;2023-10-19T00:56:01;6;6;
78842;PMS5003;70542;53.774;-0.352;2023-10-19T01:01:47;2;2;
78842;PMS5003;70542;53.774;-0.352;2023-10-19T01:07:34;8;5;
78842;PMS5003;70542;53.774;-0.352;2023-10-19T01:13:12;5;5;
78842;PMS5003;70542;53.774;-0.352;2023-10-19T01:18:51;5;5;
78842;PMS5003;70542;53.774;-0.352;2023-10-19T01:24:30;4;4;
78842;PMS5003;70542;53.774;-0.352;2023-10-19T01:30:10;14;7;
78842;PMS5003;70542;53.774;-0.352;2023-10-19T01:35:59;7;7;
78842;PMS5003;70542;53.774;-0.352;2023-10-19T01:41:43;3;3;
78842;PMS5003;70542;53.774;-0.352;2023-10-19T01:47:22;2;2;
78842;PMS5003;70542;53.774;-0.352;2023-10-19T01:53:01;8;8;
78842;PMS5003;70542;53.774;-0.352;2023-10-19T01:58:41;8;8;
78842;PMS5003;70542;53.774;-0.352;2023-10-19T02:04:31;8;8;
78842;PMS5003;70542;53.774;-0.352;2023-10-19T02:10:15;7;7;
78842;PMS5003;70542;53.774;-0.352;2023-10-19T02:16:02;3;3;
78842;PMS5003;70542;53.774;-0.352;2023-10-19T02:21:47;4;4;
78842;PMS5003;70542;53.774;-0.352;2023-10-19T02:27:26;3;3;
78842;PMS5003;70542;53.774;-0.352;2023-10-19T02:33:18;1;1;
78842;PMS5003;70542;53.774;-0.352;2023-10-19T02:38:57;5;5;
78842;PMS5003;70542;53.774;-0.352;2023-10-19T02:44:38;7;7;
78842;PMS5003;70542;53.774;-0.352;2023-10-19T02:50:26;3;3;
78842;PMS5003;70542;53.774;-0.352;2023-10-19T02:56:10;4;4;
78842;PMS5003;70542;53.774;-0.352;2023-10-19T03:01:57;4;4;
78842;PMS5003;70542;53.774;-0.352;2023-10-19T03:07:42;5;5;
78842;PMS5003;70542;53.774;-0.352;2023-10-19T03:13:23;5;5;
78842;PMS5003;70542;53.774;-0.352;2023-10-19T03:19:08;4;4;
78842;PMS5003;70542;53.774;-0.352;2023-10-19T03:24:53;5;2;
78842;PMS5003;70542;53.774;-0.352;2023-10-19T03:30:37;3;3;
78842;PMS5003;70542;53.774;-0.352;2023-10-19T03:36:21;4;4;
78842;PMS5003;70542;53.774;-0.352;2023-10-19T03:42:07;6;6;
78842;PMS5003;70542;53.774;-0.352;2023-10-19T03:47:47;6;6;
78842;PMS5003;70542;53.774;-0.352;2023-10-19T03:53:32;3;3;
78842;PMS5003;70542;53.774;-0.352;2023-10-19T03:59:11;4;4;
78842;PMS5003;70542;53.774;-0.352;2023-10-19T04:04:50;6;6;
78842;PMS5003;70542;53.774;-0.352;2023-10-19T04:10:34;8;8;
78842;PMS5003;70542;53.774;-0.352;2023-10-19T04:16:13;6;6;
78842;PMS5003;70542;53.774;-0.352;2023-10-19T04:21:52;8;8;
78842;PMS5003;70542;53.774;-0.352;2023-10-19T04:27:40;6;6;
78842;PMS5003;70542;53.774;-0.352;2023-10-19T04:33:19;4;4;
78842;PMS5003;70542;53.774;-0.352;2023-10-19T04:38:58;10;10;
78842;PMS5003;70542;53.774;-0.352;2023-10-19T04:44:37;6;6;
78842;PMS5003;70542;53.774;-0.352;2023-10-19T04:50:16;8;8;
78842;PMS5003;70542;53.774;-0.352;2023-10-19T04:55:55;9;6;
78842;PMS5003;70542;53.774;-0.352;2023-10-19T05:01:33;8;8;
78842;PMS5003;70542;53.774;-0.352;2023-10-19T05:07:12;7;7;
78842;PMS5003;70542;53.774;-0.352;2023-10-19T05:12:51;4;4;
78842;PMS5003;70542;53.774;-0.352;2023-10-19T05:18:31;4;4;
78842;PMS5003;70542;53.774;-0.352;2023-10-19T05:24:10;8;8;
78842;PMS5003;70542;53.774;-0.352;2023-10-19T05:29:48;7;7;
78842;PMS5003;70542;53.774;-0.352;2023-10-19T05:35:32;7;7;
78842;PMS5003;70542;53.774;-0.352;2023-10-19T05:41:12;3;3;
78842;PMS5003;70542;53.774;-0.352;2023-10-19T05:46:50;5;5;
78842;PMS5003;70542;53.774;-0.352;2023-10-19T05:52:29;3;3;
78842;PMS5003;70542;53.774;-0.352;2023-10-19T05:58:08;3;3;
78842;PMS5003;70542;53.774;-0.352;2023-10-19T06:03:47;5;2;
78842;PMS5003;70542;53.774;-0.352;2023-10-19T06:09:25;1;1;
78842;PMS5003;70542;53.774;-0.352;2023-10-19T06:15:05;1;1;
78842;PMS5003;70542;53.774;-0.352;2023-10-19T06:20:44;2;2;
78842;PMS5003;70542;53.774;-0.352;2023-10-19T06:26:23;2;2;
78842;PMS5003;70542;53.774;-0.352;2023-10-19T06:32:01;4;4;
78842;PMS5003;70542;53.774;-0.352;2023-10-19T06:37:40;2;2;
78842;PMS5003;70542;53.774;-0.352;2023-10-19T06:43:18;3;3;
78842;PMS5003;70542;53.774;-0.352;2023-10-19T06:48:57;4;4;
78842;PMS5003;70542;53.774;-0.352;2023-10-19T06:54:36;3;3;
78842;PMS5003;70542;53.774;-0.352;2023-10-19T07:00:21;5;5;
78842;PMS5003;70542;53.774;-0.352;2023-10-19T07:06:00;0;0;
78842;PMS5003;70542;53.774;-0.352;2023-10-19T07:11:45;0;0;
78842;PMS5003;70542;53.774;-0.352;2023-10-19T07:17:23;2;2;
78842;PMS5003;70542;53.774;-0.352;2023-10-19T07:23:02;1;1;
78842;PMS5003;70542;53.774;-0.352;2023-10-19T07:28:42;2;2;
78842;PMS5003;70542;53.774;-0.352;2023-10-19T07:34:26;2;2;
78842;PMS5003;70542;53.774;-0.352;2023-10-19T07:40:05;1;1;
78842;PMS5003;70542;53.774;-0.352;2023-10-19T07:45:45;0;0;
78842;PMS5003;70542;53.774;-0.352;2023-10-19T07:51:23;5;5;
78842;PMS5003;70542;53.774;-0.352;2023-10-19T07:57:07;3;3;
78842;PMS5003;70542;53.774;-0.352;2023-10-19T08:02:46;3;3;
78842;PMS5003;70542;53.774;-0.352;2023-10-19T08:08:25;3;3;
78842;PMS5003;70542;53.774;-0.352;2023-10-19T08:14:04;0;0;
78842;PMS5003;70542;53.774;-0.352;2023-10-19T08:19:42;4;4;
78842;PMS5003;70542;53.774;-0.352;2023-10-19T08:25:21;6;6;
78842;PMS5003;70542;53.774;-0.352;2023-10-19T08:31:00;5;5;
78842;PMS5003;70542;53.774;-0.352;2023-10-19T08:36:38;12;12;
78842;PMS5003;70542;53.774;-0.352;2023-10-19T08:42:17;7;6;
78842;PMS5003;70542;53.774;-0.352;2023-10-19T08:47:57;8;8;
78842;PMS5003;70542;53.774;-0.352;2023-10-19T08:53:37;10;10;
78842;PMS5003;70542;53.774;-0.352;2023-10-19T08:59:17;11;11;
78842;PMS5003;70542;53.774;-0.352;2023-10-19T09:04:56;10;10;
78842;PMS5003;70542;53.774;-0.352;2023-10-19T09:10:35;7;7;
78842;PMS5003;70542;53.774;-0.352;2023-10-19T09:16:14;6;6;
78842;PMS5003;70542;53.774;-0.352;2023-10-19T09:21:53;4;4;
78842;PMS5003;70542;53.774;-0.352;2023-10-19T09:27:32;5;5;
78842;PMS5003;70542;53.774;-0.352;2023-10-19T09:33:12;10;7;
78842;PMS5003;70542;53.774;-0.352;2023-10-19T09:38:51;7;5;
78842;PMS5003;70542;53.774;-0.352;2023-10-19T09:44:33;11;10;
78842;PMS5003;70542;53.774;-0.352;2023-10-19T09:50:18;1;1;
78842;PMS5003;70542;53.774;-0.352;2023-10-19T09:55:57;3;3;
78842;PMS5003;70542;53.774;-0.352;2023-10-19T10:07:35;15;12;
78842;PMS5003;70542;53.774;-0.352;2023-10-19T10:19:14;8;8;
78842;PMS5003;70542;53.774;-0.352;2023-10-19T10:24:58;8;8;
78842;PMS5003;70542;53.774;-0.352;2023-10-19T10:36:30;16;12;
78842;PMS5003;70542;53.774;-0.352;2023-10-19T10:42:19;13;13;
78842;PMS5003;70542;53.774;-0.352;2023-10-19T10:47:58;6;6;
78842;PMS5003;70542;53.774;-0.352;2023-10-19T10:53:41;6;6;
78842;PMS5003;70542;53.774;-0.352;2023-10-19T10:59:20;10;10;
78842;PMS5003;70542;53.774;-0.352;2023-10-19T11:04:59;10;10;
78842;PMS5003;70542;53.774;-0.352;2023-10-19T11:10:39;9;9;
78842;PMS5003;70542;53.774;-0.352;2023-10-19T11:16:22;14;14;
78842;PMS5003;70542;53.774;-0.352;2023-10-19T11:22:02;3;3;
78842;PMS5003;70542;53.774;-0.352;2023-10-19T11:27:41;5;5;
78842;PMS5003;70542;53.774;-0.352;2023-10-19T11:33:20;9;9;
78842;PMS5003;70542;53.774;-0.352;2023-10-19T11:38:58;7;7;
78842;PMS5003;70542;53.774;-0.352;2023-10-19T11:44:37;7;4;
78842;PMS5003;70542;53.774;-0.352;2023-10-19T11:50:16;5;5;
78842;PMS5003;70542;53.774;-0.352;2023-10-19T11:55:55;6;6;
78842;PMS5003;70542;53.774;-0.352;2023-10-19T12:01:33;9;9;
78842;PMS5003;70542;53.774;-0.352;2023-10-19T12:07:12;5;5;
78842;PMS5003;70542;53.774;-0.352;2023-10-19T12:12:51;13;13;
78842;PMS5003;70542;53.774;-0.352;2023-10-19T12:18:30;14;14;
78842;PMS5003;70542;53.774;-0.352;2023-10-19T12:24:09;8;8;
78842;PMS5003;70542;53.774;-0.352;2023-10-19T12:29:47;4;4;
78842;PMS5003;70542;53.774;-0.352;2023-10-19T12:35:26;4;4;
78842;PMS5003;70542;53.774;-0.352;2023-10-19T12:41:04;8;8;
78842;PMS5003;70542;53.774;-0.352;2023-10-19T12:46:53;9;9;
78842;PMS5003;70542;53.774;-0.352;2023-10-19T12:52:32;15;12;
78842;PMS5003;70542;53.774;-0.352;2023-10-19T12:58:11;6;6;
78842;PMS5003;70542;53.774;-0.352;2023-10-19T13:03:50;7;7;
78842;PMS5003;70542;53.774;-0.352;2023-10-19T13:09:29;6;6;
78842;PMS5003;70542;53.774;-0.352;2023-10-19T13:15:07;9;9;
78842;PMS5003;70542;53.774;-0.352;2023-10-19T13:20:47;6;6;
78842;PMS5003;70542;53.774;-0.352;2023-10-19T13:26:26;4;4;
78842;PMS5003;70542;53.774;-0.352;2023-10-19T13:32:05;6;3;
78842;PMS5003;70542;53.774;-0.352;2023-10-19T13:37:44;3;3;
78842;PMS5003;70542;53.774;-0.352;2023-10-19T13:43:23;9;6;
78842;PMS5003;70542;53.774;-0.352;2023-10-19T13:49:01;7;7;
78842;PMS5003;70542;53.774;-0.352;2023-10-19T13:54:41;9;9;
78842;PMS5003;70542;53.774;-0.352;2023-10-19T14:00:20;10;10;
78842;PMS5003;70542;53.774;-0.352;2023-10-19T14:06:00;4;4;
78842;PMS5003;70542;53.774;-0.352;2023-10-19T14:11:39;8;8;
78842;PMS5003;70542;53.774;-0.352;2023-10-19T14:17:18;8;5;
78842;PMS5003;70542;53.774;-0.352;2023-10-19T14:22:56;5;5;
78842;PMS5003;70542;53.774;-0.352;2023-10-19T14:28:36;4;4;
78842;PMS5003;70542;53.774;-0.352;2023-10-19T14:34:14;4;4;
78842;PMS5003;70542;53.774;-0.352;2023-10-19T14:39:53;12;12;
78842;PMS5003;70542;53.774;-0.352;2023-10-19T14:45:32;10;10;
78842;PMS5003;70542;53.774;-0.352;2023-10-19T14:51:10;8;8;
78842;PMS5003;70542;53.774;-0.352;2023-10-19T14:56:52;13;10;
78842;PMS5003;70542;53.774;-0.352;2023-10-19T15:02:31;5;5;
78842;PMS5003;70542;53.774;-0.352;2023-10-19T15:08:10;9;9;
78842;PMS5003;70542;53.774;-0.352;2023-10-19T15:13:49;5;5;
78842;PMS5003;70542;53.774;-0.352;2023-10-19T15:19:32;9;5;
78842;PMS5003;70542;53.774;-0.352;2023-10-19T15:25:11;7;7;
78842;PMS5003;70542;53.774;-0.352;2023-10-19T15:30:51;5;5;
78842;PMS5003;70542;53.774;-0.352;2023-10-19T15:36:30;4;4;
78842;PMS5003;70542;53.774;-0.352;2023-10-19T15:42:09;13;13;
78842;PMS5003;70542;53.774;-0.352;2023-10-19T15:47:47;7;7;
78842;PMS5003;70542;53.774;-0.352;2023-10-19T15:53:30;4;4;
78842;PMS5003;70542;53.774;-0.352;2023-10-19T15:59:11;5;5;
78842;PMS5003;70542;53.774;-0.352;2023-10-19T16:04:49;9;6;
78842;PMS5003;70542;53.774;-0.352;2023-10-19T16:10:28;6;6;
78842;PMS5003;70542;53.774;-0.352;2023-10-19T16:16:06;4;4;
78842;PMS5003;70542;53.774;-0.352;2023-10-19T16:21:45;7;6;
78842;PMS5003;70542;53.774;-0.352;2023-10-19T16:27:24;6;6;
78842;PMS5003;70542;53.774;-0.352;2023-10-19T16:33:03;6;6;
78842;PMS5003;70542;53.774;-0.352;2023-10-19T16:38:42;10;10;
78842;PMS5003;70542;53.774;-0.352;2023-10-19T16:44:20;13;13;
78842;PMS5003;70542;53.774;-0.352;2023-10-19T16:49:59;9;9;
78842;PMS5003;70542;53.774;-0.352;2023-10-19T16:55:38;11;11;
78842;PMS5003;70542;53.774;-0.352;2023-10-19T17:01:20;14;11;
78842;PMS5003;70542;53.774;-0.352;2023-10-19T17:07:04;3;3;
78842;PMS5003;70542;53.774;-0.352;2023-10-19T17:12:43;8;8;
78842;PMS5003;70542;53.774;-0.352;2023-10-19T17:18:21;25;22;
78842;PMS5003;70542;53.774;-0.352;2023-10-19T17:24:01;13;13;
78842;PMS5003;70542;53.774;-0.352;2023-10-19T17:29:40;21;17;
78842;PMS5003;70542;53.774;-0.352;2023-10-19T17:35:18;10;6;
78842;PMS5003;70542;53.774;-0.352;2023-10-19T17:41:02;9;9;
78842;PMS5003;70542;53.774;-0.352;2023-10-19T17:46:41;9;9;
78842;PMS5003;70542;53.774;-0.352;2023-10-19T17:52:20;4;4;
78842;PMS5003;70542;53.774;-0.352;2023-10-19T17:57:58;8;8;
78842;PMS5003;70542;53.774;-0.352;2023-10-19T18:03:37;10;10;
78842;PMS5003;70542;53.774;-0.352;2023-10-19T18:09:16;10;10;
78842;PMS5003;70542;53.774;-0.352;2023-10-19T18:15:00;15;15;
78842;PMS5003;70542;53.774;-0.352;2023-10-19T18:20:39;17;14;
78842;PMS5003;70542;53.774;-0.352;2023-10-19T18:26:17;11;8;
78842;PMS5003;70542;53.774;-0.352;2023-10-19T18:31:56;18;15;
78842;PMS5003;70542;53.774;-0.352;2023-10-19T18:37:35;11;11;
78842;PMS5003;70542;53.774;-0.352;2023-10-19T18:43:14;13;11;
78842;PMS5003;70542;53.774;-0.352;2023-10-19T18:48:53;21;18;
78842;PMS5003;70542;53.774;-0.352;2023-10-19T18:54:32;11;11;
78842;PMS5003;70542;53.774;-0.352;2023-10-19T19:00:11;13;13;
78842;PMS5003;70542;53.774;-0.352;2023-10-19T19:05:54;24;24;
78842;PMS5003;70542;53.774;-0.352;2023-10-19T19:11:33;13;13;
78842;PMS5003;70542;53.774;-0.352;2023-10-19T19:17:12;11;11;
78842;PMS5003;70542;53.774;-0.352;2023-10-19T19:22:51;21;18;
78842;PMS5003;70542;53.774;-0.352;2023-10-19T19:28:30;18;18;
78842;PMS5003;70542;53.774;-0.352;2023-10-19T19:34:10;15;15;
78842;PMS5003;70542;53.774;-0.352;2023-10-19T19:39:54;32;23;
78842;PMS5003;70542;53.774;-0.352;2023-10-19T19:45:33;17;17;
78842;PMS5003;70542;53.774;-0.352;2023-10-19T19:51:12;27;23;
78842;PMS5003;70542;53.774;-0.352;2023-10-19T19:56:51;16;16;
78842;PMS5003;70542;53.774;-0.352;2023-10-19T20:02:30;21;21;
78842;PMS5003;70542;53.774;-0.352;2023-10-19T20:08:10;14;14;
78842;PMS5003;70542;53.774;-0.352;2023-10-19T20:13:49;23;23;
78842;PMS5003;70542;53.774;-0.352;2023-10-19T20:19:28;15;15;
78842;PMS5003;70542;53.774;-0.352;2023-10-19T20:25:07;14;14;
78842;PMS5003;70542;53.774;-0.352;2023-10-19T20:30:51;13;11;
78842;PMS5003;70542;53.774;-0.352;2023-10-19T20:36:29;28;24;
78842;PMS5003;70542;53.774;-0.352;2023-10-19T20:42:08;14;14;
78842;PMS5003;70542;53.774;-0.352;2023-10-19T20:47:48;21;21;
78842;PMS5003;70542;53.774;-0.352;2023-10-19T20:53:35;26;22;
78842;PMS5003;70542;53.774;-0.352;2023-10-19T20:59:19;21;18;
78842;PMS5003;70542;53.774;-0.352;2023-10-19T21:04:58;16;16;
78842;PMS5003;70542;53.774;-0.352;2023-10-19T21:10:42;24;18;
78842;PMS5003;70542;53.774;-0.352;2023-10-19T21:16:21;14;14;
78842;PMS5003;70542;53.774;-0.352;2023-10-19T21:22:00;19;19;
78842;PMS5003;70542;53.774;-0.352;2023-10-19T21:27:39;15;15;
78842;PMS5003;70542;53.774;-0.352;2023-10-19T21:33:18;13;13;
78842;PMS5003;70542;53.774;-0.352;2023-10-19T21:38:57;15;15;
78842;PMS5003;70542;53.774;-0.352;2023-10-19T21:44:36;19;19;
78842;PMS5003;70542;53.774;-0.352;2023-10-19T21:50:15;13;13;
78842;PMS5003;70542;53.774;-0.352;2023-10-19T21:55:54;19;19;
78842;PMS5003;70542;53.774;-0.352;2023-10-19T22:01:54;11;11;
78842;PMS5003;70542;53.774;-0.352;2023-10-19T22:07:32;24;20;
78842;PMS5003;70542;53.774;-0.352;2023-10-19T22:13:12;13;13;
78842;PMS5003;70542;53.774;-0.352;2023-10-19T22:18:57;12;12;
78842;PMS5003;70542;53.774;-0.352;2023-10-19T22:24:36;12;12;
78842;PMS5003;70542;53.774;-0.352;2023-10-19T22:30:15;12;8;
78842;PMS5003;70542;53.774;-0.352;2023-10-19T22:35:53;8;8;
78842;PMS5003;70542;53.774;-0.352;2023-10-19T22:41:45;11;11;
78842;PMS5003;70542;53.774;-0.352;2023-10-19T22:47:29;19;19;
78842;PMS5003;70542;53.774;-0.352;2023-10-19T22:53:08;15;15;
78842;PMS5003;70542;53.774;-0.352;2023-10-19T22:58:46;18;18;
78842;PMS5003;70542;53.774;-0.352;2023-10-19T23:04:25;15;15;
78842;PMS5003;70542;53.774;-0.352;2023-10-19T23:10:05;25;25;
78842;PMS5003;70542;53.774;-0.352;2023-10-19T23:15:44;12;12;
78842;PMS5003;70542;53.774;-0.352;2023-10-19T23:21:23;8;8;
78842;PMS5003;70542;53.774;-0.352;2023-10-19T23:27:14;4;4;
78842;PMS5003;70542;53.774;-0.352;2023-10-19T23:32:52;15;15;
78842;PMS5003;70542;53.774;-0.352;2023-10-19T23:38:31;13;13;
78842;PMS5003;70542;53.774;-0.352;2023-10-19T23:44:10;22;22;
78842;PMS5003;70542;53.774;-0.352;2023-10-19T23:49:50;18;18;
78842;PMS5003;70542;53.774;-0.352;2023-10-19T23:55:28;34;26;
